sensor_id;sensor_type;location;lat;lon;timestamp;pressure;altitude;pressure_sealevel;temperature;humidity
49843;BME280;55559;48.898;9.184;2023-02-26T00:01:00;97940.69;;;-0.43;100.00
49843;BME280;55559;48.898;9.184;2023-02-26T00:03:28;97952.69;;;-0.56;100.00
49843;BME280;55559;48.898;9.184;2023-02-26T00:05:58;97953.88;;;-0.62;100.00
49843;BME280;55559;48.898;9.184;2023-02-26T00:08:26;97950.72;;;-0.68;100.00
49843;BME280;55559;48.898;9.184;2023-02-26T00:10:56;97954.44;;;-0.72;100.00
49843;BME280;55559;48.898;9.184;2023-02-26T00:13:26;97955.50;;;-0.77;100.00
49843;BME280;55559;48.898;9.184;2023-02-26T00:15:57;97960.94;;;-0.81;100.00
49843;BME280;55559;48.898;9.184;2023-02-26T00:18:27;97960.41;;;-0.88;100.00
49843;BME280;55559;48.898;9.184;2023-02-26T00:20:56;97966.72;;;-0.92;100.00
49843;BME280;55559;48.898;9.184;2023-02-26T00:23:23;97960.06;;;-0.98;100.00
49843;BME280;55559;48.898;9.184;2023-02-26T00:25:51;97963.78;;;-1.03;100.00
49843;BME280;55559;48.898;9.184;2023-02-26T00:28:19;97963.88;;;-1.05;100.00
49843;BME280;55559;48.898;9.184;2023-02-26T00:30:47;97963.41;;;-1.13;100.00
49843;BME280;55559;48.898;9.184;2023-02-26T00:33:15;97965.31;;;-1.17;100.00
49843;BME280;55559;48.898;9.184;2023-02-26T00:35:44;97964.41;;;-1.16;100.00
49843;BME280;55559;48.898;9.184;2023-02-26T00:38:15;97966.47;;;-1.22;100.00
49843;BME280;55559;48.898;9.184;2023-02-26T00:40:44;97966.22;;;-1.35;100.00
49843;BME280;55559;48.898;9.184;2023-02-26T00:43:14;97971.28;;;-1.32;100.00
49843;BME280;55559;48.898;9.184;2023-02-26T00:45:46;97962.91;;;-1.39;100.00
49843;BME280;55559;48.898;9.184;2023-02-26T00:48:32;97964.63;;;-1.38;100.00
49843;BME280;55559;48.898;9.184;2023-02-26T00:51:09;97970.81;;;-1.40;100.00
49843;BME280;55559;48.898;9.184;2023-02-26T00:53:45;97967.84;;;-1.50;100.00
49843;BME280;55559;48.898;9.184;2023-02-26T00:56:14;97966.34;;;-1.56;100.00
49843;BME280;55559;48.898;9.184;2023-02-26T00:58:42;97971.41;;;-1.53;100.00
49843;BME280;55559;48.898;9.184;2023-02-26T01:01:09;97972.03;;;-1.47;100.00
49843;BME280;55559;48.898;9.184;2023-02-26T01:03:37;97967.09;;;-1.54;100.00
49843;BME280;55559;48.898;9.184;2023-02-26T01:06:10;97966.19;;;-1.53;100.00
49843;BME280;55559;48.898;9.184;2023-02-26T01:08:43;97969.03;;;-1.57;100.00
49843;BME280;55559;48.898;9.184;2023-02-26T01:11:14;97971.16;;;-1.65;100.00
49843;BME280;55559;48.898;9.184;2023-02-26T01:13:42;97970.38;;;-1.67;100.00
49843;BME280;55559;48.898;9.184;2023-02-26T01:16:16;97972.63;;;-1.79;100.00
49843;BME280;55559;48.898;9.184;2023-02-26T01:18:49;97975.91;;;-1.74;100.00
49843;BME280;55559;48.898;9.184;2023-02-26T01:21:27;97974.91;;;-1.71;100.00
49843;BME280;55559;48.898;9.184;2023-02-26T01:23:58;97971.88;;;-1.81;100.00
49843;BME280;55559;48.898;9.184;2023-02-26T01:26:28;97968.44;;;-1.81;100.00
49843;BME280;55559;48.898;9.184;2023-02-26T01:28:56;97966.91;;;-1.85;100.00
49843;BME280;55559;48.898;9.184;2023-02-26T01:31:33;97975.75;;;-1.90;100.00
49843;BME280;55559;48.898;9.184;2023-02-26T01:34:07;97974.28;;;-1.95;100.00
49843;BME280;55559;48.898;9.184;2023-02-26T01:36:43;97970.03;;;-1.98;100.00
49843;BME280;55559;48.898;9.184;2023-02-26T01:39:19;97973.72;;;-2.02;100.00
49843;BME280;55559;48.898;9.184;2023-02-26T01:41:51;97970.03;;;-1.98;100.00
49843;BME280;55559;48.898;9.184;2023-02-26T01:44:26;97971.25;;;-2.05;100.00
49843;BME280;55559;48.898;9.184;2023-02-26T01:47:13;97970.34;;;-2.04;100.00
49843;BME280;55559;48.898;9.184;2023-02-26T01:49:43;97979.00;;;-2.03;100.00
49843;BME280;55559;48.898;9.184;2023-02-26T01:55:28;97976.81;;;-2.13;100.00
49843;BME280;55559;48.898;9.184;2023-02-26T01:57:58;97970.06;;;-2.17;100.00
49843;BME280;55559;48.898;9.184;2023-02-26T02:00:27;97975.13;;;-2.14;100.00
49843;BME280;55559;48.898;9.184;2023-02-26T02:02:55;97967.38;;;-2.15;100.00
49843;BME280;55559;48.898;9.184;2023-02-26T02:05:27;97980.66;;;-2.21;100.00
49843;BME280;55559;48.898;9.184;2023-02-26T02:07:57;97968.72;;;-2.26;100.00
49843;BME280;55559;48.898;9.184;2023-02-26T02:10:25;97983.56;;;-2.28;100.00
49843;BME280;55559;48.898;9.184;2023-02-26T02:13:01;97980.09;;;-2.28;100.00
49843;BME280;55559;48.898;9.184;2023-02-26T02:15:35;97985.66;;;-2.36;100.00
49843;BME280;55559;48.898;9.184;2023-02-26T02:18:11;97988.03;;;-2.31;100.00
49843;BME280;55559;48.898;9.184;2023-02-26T02:21:03;97979.13;;;-2.26;100.00
49843;BME280;55559;48.898;9.184;2023-02-26T02:23:39;97987.06;;;-2.29;100.00
49843;BME280;55559;48.898;9.184;2023-02-26T02:26:32;97991.72;;;-2.35;100.00
49843;BME280;55559;48.898;9.184;2023-02-26T02:29:26;97984.81;;;-2.36;100.00
49843;BME280;55559;48.898;9.184;2023-02-26T02:32:00;97991.06;;;-2.40;100.00
49843;BME280;55559;48.898;9.184;2023-02-26T02:34:35;97997.97;;;-2.39;100.00
49843;BME280;55559;48.898;9.184;2023-02-26T02:37:11;97998.94;;;-2.42;100.00
49843;BME280;55559;48.898;9.184;2023-02-26T02:39:46;98001.69;;;-2.45;100.00
49843;BME280;55559;48.898;9.184;2023-02-26T02:42:21;97996.47;;;-2.45;100.00
49843;BME280;55559;48.898;9.184;2023-02-26T02:44:54;97994.88;;;-2.48;100.00
49843;BME280;55559;48.898;9.184;2023-02-26T02:47:25;98002.50;;;-2.45;100.00
49843;BME280;55559;48.898;9.184;2023-02-26T02:50:03;98004.28;;;-2.45;100.00
49843;BME280;55559;48.898;9.184;2023-02-26T02:52:36;98000.59;;;-2.39;100.00
49843;BME280;55559;48.898;9.184;2023-02-26T02:55:09;98000.91;;;-2.47;100.00
49843;BME280;55559;48.898;9.184;2023-02-26T02:57:41;98007.19;;;-2.51;100.00
49843;BME280;55559;48.898;9.184;2023-02-26T03:00:12;98008.13;;;-2.54;100.00
49843;BME280;55559;48.898;9.184;2023-02-26T03:02:46;98008.72;;;-2.47;100.00
49843;BME280;55559;48.898;9.184;2023-02-26T03:05:16;98005.53;;;-2.54;100.00
49843;BME280;55559;48.898;9.184;2023-02-26T03:07:52;98014.00;;;-2.49;100.00
49843;BME280;55559;48.898;9.184;2023-02-26T03:10:20;98020.75;;;-2.45;100.00
49843;BME280;55559;48.898;9.184;2023-02-26T03:12:49;98021.81;;;-2.49;100.00
49843;BME280;55559;48.898;9.184;2023-02-26T03:15:20;98015.03;;;-2.53;100.00
49843;BME280;55559;48.898;9.184;2023-02-26T03:17:53;98023.16;;;-2.60;100.00
49843;BME280;55559;48.898;9.184;2023-02-26T03:20:29;98024.88;;;-2.59;100.00
49843;BME280;55559;48.898;9.184;2023-02-26T03:23:03;98025.13;;;-2.66;100.00
49843;BME280;55559;48.898;9.184;2023-02-26T03:25:40;98025.13;;;-2.66;100.00
49843;BME280;55559;48.898;9.184;2023-02-26T03:28:17;98033.19;;;-2.72;100.00
49843;BME280;55559;48.898;9.184;2023-02-26T03:30:54;98033.19;;;-2.72;100.00
49843;BME280;55559;48.898;9.184;2023-02-26T03:33:30;98032.75;;;-2.82;100.00
49843;BME280;55559;48.898;9.184;2023-02-26T03:36:05;98032.88;;;-2.85;100.00
49843;BME280;55559;48.898;9.184;2023-02-26T03:38:43;98040.84;;;-2.89;100.00
49843;BME280;55559;48.898;9.184;2023-02-26T03:41:16;98044.41;;;-2.92;100.00
49843;BME280;55559;48.898;9.184;2023-02-26T03:43:47;98046.31;;;-2.95;100.00
49843;BME280;55559;48.898;9.184;2023-02-26T03:46:20;98044.88;;;-3.03;100.00
49843;BME280;55559;48.898;9.184;2023-02-26T03:48:52;98061.97;;;-2.97;100.00
49843;BME280;55559;48.898;9.184;2023-02-26T03:51:21;98049.91;;;-2.98;100.00
49843;BME280;55559;48.898;9.184;2023-02-26T03:54:20;98061.13;;;-2.97;100.00
49843;BME280;55559;48.898;9.184;2023-02-26T03:57:01;98067.44;;;-3.03;100.00
49843;BME280;55559;48.898;9.184;2023-02-26T03:59:52;98062.84;;;-2.96;100.00
49843;BME280;55559;48.898;9.184;2023-02-26T04:02:46;98063.84;;;-3.01;100.00
49843;BME280;55559;48.898;9.184;2023-02-26T04:05:20;98056.06;;;-3.01;100.00
49843;BME280;55559;48.898;9.184;2023-02-26T04:07:49;98071.31;;;-2.91;100.00
49843;BME280;55559;48.898;9.184;2023-02-26T04:10:18;98069.72;;;-2.95;100.00
49843;BME280;55559;48.898;9.184;2023-02-26T04:12:47;98066.09;;;-2.91;100.00
49843;BME280;55559;48.898;9.184;2023-02-26T04:15:15;98065.56;;;-3.00;100.00
49843;BME280;55559;48.898;9.184;2023-02-26T04:17:42;98063.03;;;-3.01;100.00
49843;BME280;55559;48.898;9.184;2023-02-26T04:20:10;98071.94;;;-3.07;100.00
49843;BME280;55559;48.898;9.184;2023-02-26T04:22:39;98070.47;;;-3.14;100.00
49843;BME280;55559;48.898;9.184;2023-02-26T04:25:07;98068.66;;;-3.12;100.00
49843;BME280;55559;48.898;9.184;2023-02-26T04:27:35;98075.53;;;-3.11;100.00
49843;BME280;55559;48.898;9.184;2023-02-26T04:30:16;98071.38;;;-3.15;100.00
49843;BME280;55559;48.898;9.184;2023-02-26T04:32:43;98073.25;;;-3.19;100.00
49843;BME280;55559;48.898;9.184;2023-02-26T04:35:13;98078.75;;;-3.26;100.00
49843;BME280;55559;48.898;9.184;2023-02-26T04:37:43;98086.63;;;-3.28;100.00
49843;BME280;55559;48.898;9.184;2023-02-26T04:40:11;98094.28;;;-3.25;100.00
49843;BME280;55559;48.898;9.184;2023-02-26T04:42:39;98088.38;;;-3.28;100.00
49843;BME280;55559;48.898;9.184;2023-02-26T04:45:07;98102.22;;;-3.28;100.00
49843;BME280;55559;48.898;9.184;2023-02-26T04:47:36;98099.63;;;-3.28;100.00
49843;BME280;55559;48.898;9.184;2023-02-26T04:50:05;98098.72;;;-3.27;100.00
49843;BME280;55559;48.898;9.184;2023-02-26T04:52:33;98105.59;;;-3.26;100.00
49843;BME280;55559;48.898;9.184;2023-02-26T04:55:03;98107.34;;;-3.26;100.00
49843;BME280;55559;48.898;9.184;2023-02-26T04:57:32;98105.59;;;-3.26;100.00
49843;BME280;55559;48.898;9.184;2023-02-26T05:00:00;98107.53;;;-3.31;100.00
49843;BME280;55559;48.898;9.184;2023-02-26T05:02:33;98109.19;;;-3.28;100.00
49843;BME280;55559;48.898;9.184;2023-02-26T05:05:01;98105.38;;;-3.20;100.00
49843;BME280;55559;48.898;9.184;2023-02-26T05:07:30;98114.22;;;-3.24;100.00
49843;BME280;55559;48.898;9.184;2023-02-26T05:09:57;98110.69;;;-3.23;100.00
49843;BME280;55559;48.898;9.184;2023-02-26T05:12:26;98116.06;;;-3.27;100.00
49843;BME280;55559;48.898;9.184;2023-02-26T05:14:54;98111.50;;;-3.22;100.00
49843;BME280;55559;48.898;9.184;2023-02-26T05:17:22;98113.28;;;-3.23;100.00
49843;BME280;55559;48.898;9.184;2023-02-26T05:19:50;98114.72;;;-3.15;100.00
49843;BME280;55559;48.898;9.184;2023-02-26T05:22:18;98120.91;;;-3.18;100.00
49843;BME280;55559;48.898;9.184;2023-02-26T05:24:45;98122.13;;;-3.27;100.00
49843;BME280;55559;48.898;9.184;2023-02-26T05:27:13;98121.13;;;-3.24;100.00
49843;BME280;55559;48.898;9.184;2023-02-26T05:29:46;98130.75;;;-3.26;100.00
49843;BME280;55559;48.898;9.184;2023-02-26T05:32:14;98132.63;;;-3.30;100.00
49843;BME280;55559;48.898;9.184;2023-02-26T05:34:42;98125.22;;;-3.41;100.00
49843;BME280;55559;48.898;9.184;2023-02-26T05:37:10;98133.03;;;-3.41;100.00
49843;BME280;55559;48.898;9.184;2023-02-26T05:39:37;98138.47;;;-3.47;100.00
49843;BME280;55559;48.898;9.184;2023-02-26T05:42:06;98143.06;;;-3.53;100.00
49843;BME280;55559;48.898;9.184;2023-02-26T05:44:33;98147.31;;;-3.52;100.00
49843;BME280;55559;48.898;9.184;2023-02-26T05:47:02;98146.75;;;-3.59;100.00
49843;BME280;55559;48.898;9.184;2023-02-26T05:49:30;98155.00;;;-3.49;100.00
49843;BME280;55559;48.898;9.184;2023-02-26T05:51:58;98160.22;;;-3.49;100.00
49843;BME280;55559;48.898;9.184;2023-02-26T05:54:25;98158.84;;;-3.60;100.00
49843;BME280;55559;48.898;9.184;2023-02-26T05:56:53;98161.63;;;-3.64;100.00
49843;BME280;55559;48.898;9.184;2023-02-26T05:59:20;98168.72;;;-3.69;100.00
49843;BME280;55559;48.898;9.184;2023-02-26T06:01:48;98168.94;;;-3.74;100.00
49843;BME280;55559;48.898;9.184;2023-02-26T06:04:17;98175.84;;;-3.75;100.00
49843;BME280;55559;48.898;9.184;2023-02-26T06:06:44;98171.56;;;-3.76;100.00
49843;BME280;55559;48.898;9.184;2023-02-26T06:09:12;98182.06;;;-3.79;100.00
49843;BME280;55559;48.898;9.184;2023-02-26T06:11:39;98176.66;;;-3.72;100.00
49843;BME280;55559;48.898;9.184;2023-02-26T06:14:07;98189.72;;;-3.74;100.00
49843;BME280;55559;48.898;9.184;2023-02-26T06:16:34;98190.34;;;-3.67;100.00
49843;BME280;55559;48.898;9.184;2023-02-26T06:19:02;98198.28;;;-3.72;100.00
49843;BME280;55559;48.898;9.184;2023-02-26T06:21:31;98200.06;;;-3.72;100.00
49843;BME280;55559;48.898;9.184;2023-02-26T06:23:58;98209.56;;;-3.73;100.00
49843;BME280;55559;48.898;9.184;2023-02-26T06:26:26;98202.47;;;-3.68;100.00
49843;BME280;55559;48.898;9.184;2023-02-26T06:28:53;98208.91;;;-3.55;100.00
49843;BME280;55559;48.898;9.184;2023-02-26T06:31:21;98201.38;;;-3.37;100.00
49843;BME280;55559;48.898;9.184;2023-02-26T06:33:48;98206.28;;;-3.29;100.00
49843;BME280;55559;48.898;9.184;2023-02-26T06:36:16;98216.34;;;-3.20;100.00
49843;BME280;55559;48.898;9.184;2023-02-26T06:38:45;98220.97;;;-3.05;100.00
49843;BME280;55559;48.898;9.184;2023-02-26T06:41:12;98222.66;;;-3.04;100.00
49843;BME280;55559;48.898;9.184;2023-02-26T06:43:40;98232.78;;;-2.96;100.00
49843;BME280;55559;48.898;9.184;2023-02-26T06:46:07;98237.56;;;-2.85;100.00
49843;BME280;55559;48.898;9.184;2023-02-26T06:48:35;98238.38;;;-2.83;100.00
49843;BME280;55559;48.898;9.184;2023-02-26T06:51:03;98244.53;;;-2.86;100.00
49843;BME280;55559;48.898;9.184;2023-02-26T06:53:30;98241.50;;;-2.75;100.00
49843;BME280;55559;48.898;9.184;2023-02-26T06:55:59;98252.72;;;-2.73;100.00
49843;BME280;55559;48.898;9.184;2023-02-26T06:58:26;98250.91;;;-2.71;100.00
49843;BME280;55559;48.898;9.184;2023-02-26T07:00:54;98266.03;;;-2.58;100.00
49843;BME280;55559;48.898;9.184;2023-02-26T07:03:21;98265.31;;;-2.62;100.00
49843;BME280;55559;48.898;9.184;2023-02-26T07:05:49;98269.69;;;-2.63;100.00
49843;BME280;55559;48.898;9.184;2023-02-26T07:08:17;98269.56;;;-2.59;100.00
49843;BME280;55559;48.898;9.184;2023-02-26T07:10:44;98279.44;;;-2.46;100.00
49843;BME280;55559;48.898;9.184;2023-02-26T07:13:15;98274.16;;;-2.44;100.00
49843;BME280;55559;48.898;9.184;2023-02-26T07:15:43;98279.38;;;-2.44;100.00
49843;BME280;55559;48.898;9.184;2023-02-26T07:18:10;98277.66;;;-2.45;100.00
49843;BME280;55559;48.898;9.184;2023-02-26T07:20:38;98286.81;;;-2.35;100.00
49843;BME280;55559;48.898;9.184;2023-02-26T07:23:05;98284.56;;;-2.22;100.00
49843;BME280;55559;48.898;9.184;2023-02-26T07:25:33;98273.06;;;-2.38;100.00
49843;BME280;55559;48.898;9.184;2023-02-26T07:28:00;98278.53;;;-2.22;100.00
49843;BME280;55559;48.898;9.184;2023-02-26T07:30:29;98285.06;;;-2.12;100.00
49843;BME280;55559;48.898;9.184;2023-02-26T07:32:57;98280.81;;;-2.15;100.00
49843;BME280;55559;48.898;9.184;2023-02-26T07:35:24;98285.81;;;-1.88;100.00
49843;BME280;55559;48.898;9.184;2023-02-26T07:37:52;98288.81;;;-1.97;100.00
49843;BME280;55559;48.898;9.184;2023-02-26T07:40:19;98295.66;;;-2.17;100.00
49843;BME280;55559;48.898;9.184;2023-02-26T07:42:47;98288.34;;;-1.87;100.00
49843;BME280;55559;48.898;9.184;2023-02-26T07:45:14;98290.72;;;-1.80;100.00
49843;BME280;55559;48.898;9.184;2023-02-26T07:47:48;98298.66;;;-1.83;100.00
49843;BME280;55559;48.898;9.184;2023-02-26T07:50:16;98290.97;;;-1.87;100.00
49843;BME280;55559;48.898;9.184;2023-02-26T07:52:44;98296.59;;;-1.75;100.00
49843;BME280;55559;48.898;9.184;2023-02-26T07:55:13;98303.34;;;-1.51;100.00
49843;BME280;55559;48.898;9.184;2023-02-26T07:57:41;98298.28;;;-1.33;100.00
49843;BME280;55559;48.898;9.184;2023-02-26T08:00:09;98300.38;;;-1.41;100.00
49843;BME280;55559;48.898;9.184;2023-02-26T08:02:40;98311.19;;;-1.51;100.00
49843;BME280;55559;48.898;9.184;2023-02-26T08:05:09;98306.09;;;-1.54;100.00
49843;BME280;55559;48.898;9.184;2023-02-26T08:07:36;98301.78;;;-1.34;100.00
49843;BME280;55559;48.898;9.184;2023-02-26T08:10:04;98309.47;;;-1.31;100.00
49843;BME280;55559;48.898;9.184;2023-02-26T08:12:32;98304.91;;;-1.26;100.00
49843;BME280;55559;48.898;9.184;2023-02-26T08:14:59;98316.78;;;-1.60;100.00
49843;BME280;55559;48.898;9.184;2023-02-26T08:17:27;98304.28;;;-1.31;100.00
49843;BME280;55559;48.898;9.184;2023-02-26T08:19:54;98308.91;;;-1.38;100.00
49843;BME280;55559;48.898;9.184;2023-02-26T08:22:23;98311.44;;;-1.16;100.00
49843;BME280;55559;48.898;9.184;2023-02-26T08:24:51;98310.16;;;-1.07;100.00
49843;BME280;55559;48.898;9.184;2023-02-26T08:27:18;98316.00;;;-1.21;100.00
49843;BME280;55559;48.898;9.184;2023-02-26T08:29:45;98321.59;;;-1.09;100.00
49843;BME280;55559;48.898;9.184;2023-02-26T08:32:15;98322.38;;;-1.07;100.00
49843;BME280;55559;48.898;9.184;2023-02-26T08:34:44;98319.41;;;-1.00;100.00
49843;BME280;55559;48.898;9.184;2023-02-26T08:37:12;98323.53;;;-0.56;100.00
49843;BME280;55559;48.898;9.184;2023-02-26T08:39:41;98333.44;;;-0.44;100.00
49843;BME280;55559;48.898;9.184;2023-02-26T08:42:09;98317.47;;;-0.38;100.00
49843;BME280;55559;48.898;9.184;2023-02-26T08:44:37;98331.47;;;-0.39;100.00
49843;BME280;55559;48.898;9.184;2023-02-26T08:47:04;98319.28;;;-0.02;100.00
49843;BME280;55559;48.898;9.184;2023-02-26T08:49:31;98328.97;;;-0.23;100.00
49843;BME280;55559;48.898;9.184;2023-02-26T08:51:59;98329.72;;;-0.21;100.00
49843;BME280;55559;48.898;9.184;2023-02-26T08:54:26;98327.50;;;-0.66;100.00
49843;BME280;55559;48.898;9.184;2023-02-26T08:56:56;98340.69;;;-0.69;100.00
49843;BME280;55559;48.898;9.184;2023-02-26T08:59:24;98338.41;;;-0.96;100.00
49843;BME280;55559;48.898;9.184;2023-02-26T09:01:51;98351.94;;;-0.88;100.00
49843;BME280;55559;48.898;9.184;2023-02-26T09:04:19;98349.16;;;-0.83;100.00
49843;BME280;55559;48.898;9.184;2023-02-26T09:06:47;98346.78;;;-0.69;100.00
49843;BME280;55559;48.898;9.184;2023-02-26T09:09:14;98345.75;;;-0.85;100.00
49843;BME280;55559;48.898;9.184;2023-02-26T09:11:42;98356.84;;;-0.61;100.00
49843;BME280;55559;48.898;9.184;2023-02-26T09:14:11;98355.50;;;-0.89;100.00
49843;BME280;55559;48.898;9.184;2023-02-26T09:16:39;98353.91;;;-0.72;100.00
49843;BME280;55559;48.898;9.184;2023-02-26T09:19:06;98365.44;;;-1.18;100.00
49843;BME280;55559;48.898;9.184;2023-02-26T09:21:34;98359.59;;;-0.83;100.00
49843;BME280;55559;48.898;9.184;2023-02-26T09:24:02;98362.81;;;-0.97;100.00
49843;BME280;55559;48.898;9.184;2023-02-26T09:26:29;98357.16;;;-0.88;100.00
49843;BME280;55559;48.898;9.184;2023-02-26T09:28:56;98362.00;;;-0.79;100.00
49843;BME280;55559;48.898;9.184;2023-02-26T09:31:25;98369.19;;;-0.84;100.00
49843;BME280;55559;48.898;9.184;2023-02-26T09:33:53;98368.22;;;-1.02;100.00
49843;BME280;55559;48.898;9.184;2023-02-26T09:36:20;98385.25;;;-0.93;100.00
49843;BME280;55559;48.898;9.184;2023-02-26T09:38:48;98380.50;;;-1.04;100.00
49843;BME280;55559;48.898;9.184;2023-02-26T09:41:19;98372.47;;;-0.99;100.00
49843;BME280;55559;48.898;9.184;2023-02-26T09:44:10;98386.56;;;-1.03;100.00
49843;BME280;55559;48.898;9.184;2023-02-26T09:46:55;98393.78;;;-1.10;100.00
49843;BME280;55559;48.898;9.184;2023-02-26T09:49:48;98383.91;;;-0.83;100.00
49843;BME280;55559;48.898;9.184;2023-02-26T09:52:22;98396.56;;;-0.92;100.00
49843;BME280;55559;48.898;9.184;2023-02-26T09:54:52;98401.38;;;-1.04;100.00
49843;BME280;55559;48.898;9.184;2023-02-26T09:57:26;98399.81;;;-1.08;100.00
49843;BME280;55559;48.898;9.184;2023-02-26T09:59:56;98398.56;;;-0.99;100.00
49843;BME280;55559;48.898;9.184;2023-02-26T10:02:35;98393.72;;;-0.88;100.00
49843;BME280;55559;48.898;9.184;2023-02-26T10:05:16;98396.03;;;-0.61;100.00
49843;BME280;55559;48.898;9.184;2023-02-26T10:07:51;98404.81;;;-0.62;100.00
49843;BME280;55559;48.898;9.184;2023-02-26T10:10:29;98396.47;;;-0.32;100.00
49843;BME280;55559;48.898;9.184;2023-02-26T10:12:59;98399.53;;;-0.23;100.00
49843;BME280;55559;48.898;9.184;2023-02-26T10:15:31;98404.03;;;-0.26;100.00
49843;BME280;55559;48.898;9.184;2023-02-26T10:18:08;98401.56;;;0.09;100.00
49843;BME280;55559;48.898;9.184;2023-02-26T10:20:42;98408.84;;;0.39;100.00
49843;BME280;55559;48.898;9.184;2023-02-26T10:23:19;98410.53;;;0.40;100.00
49843;BME280;55559;48.898;9.184;2023-02-26T10:25:52;98407.31;;;0.52;100.00
49843;BME280;55559;48.898;9.184;2023-02-26T10:28:33;98406.63;;;0.48;100.00
49843;BME280;55559;48.898;9.184;2023-02-26T10:31:10;98416.53;;;0.42;100.00
49843;BME280;55559;48.898;9.184;2023-02-26T10:33:46;98405.66;;;0.68;100.00
49843;BME280;55559;48.898;9.184;2023-02-26T10:36:21;98411.09;;;0.64;100.00
49843;BME280;55559;48.898;9.184;2023-02-26T10:38:57;98408.97;;;0.54;100.00
49843;BME280;55559;48.898;9.184;2023-02-26T10:41:30;98399.31;;;0.55;100.00
49843;BME280;55559;48.898;9.184;2023-02-26T10:44:08;98406.66;;;0.66;100.00
49843;BME280;55559;48.898;9.184;2023-02-26T10:46:45;98410.34;;;0.79;100.00
49843;BME280;55559;48.898;9.184;2023-02-26T10:49:46;98407.34;;;0.69;100.00
49843;BME280;55559;48.898;9.184;2023-02-26T10:52:18;98404.34;;;0.60;100.00
49843;BME280;55559;48.898;9.184;2023-02-26T10:57:47;98422.25;;;0.67;100.00
49843;BME280;55559;48.898;9.184;2023-02-26T11:00:18;98421.91;;;0.75;100.00
49843;BME280;55559;48.898;9.184;2023-02-26T11:02:49;98423.34;;;0.81;100.00
49843;BME280;55559;48.898;9.184;2023-02-26T11:05:21;98425.31;;;0.95;100.00
49843;BME280;55559;48.898;9.184;2023-02-26T11:07:55;98425.59;;;0.88;100.00
49843;BME280;55559;48.898;9.184;2023-02-26T11:10:24;98425.00;;;0.83;100.00
49843;BME280;55559;48.898;9.184;2023-02-26T11:12:53;98432.84;;;0.83;100.00
49843;BME280;55559;48.898;9.184;2023-02-26T11:15:22;98423.34;;;1.16;100.00
49843;BME280;55559;48.898;9.184;2023-02-26T11:17:53;98434.22;;;1.25;100.00
49843;BME280;55559;48.898;9.184;2023-02-26T11:20:30;98427.34;;;1.40;100.00
49843;BME280;55559;48.898;9.184;2023-02-26T11:23:01;98417.56;;;1.60;100.00
49843;BME280;55559;48.898;9.184;2023-02-26T11:25:31;98415.63;;;1.30;100.00
49843;BME280;55559;48.898;9.184;2023-02-26T11:28:01;98430.22;;;1.52;100.00
49843;BME280;55559;48.898;9.184;2023-02-26T11:30:31;98423.41;;;1.65;100.00
49843;BME280;55559;48.898;9.184;2023-02-26T11:33:06;98421.97;;;1.75;100.00
49843;BME280;55559;48.898;9.184;2023-02-26T11:35:41;98421.41;;;1.37;100.00
49843;BME280;55559;48.898;9.184;2023-02-26T11:38:15;98424.72;;;1.23;100.00
49843;BME280;55559;48.898;9.184;2023-02-26T11:40:46;98409.97;;;1.71;100.00
49843;BME280;55559;48.898;9.184;2023-02-26T11:43:16;98408.09;;;1.73;100.00
49843;BME280;55559;48.898;9.184;2023-02-26T11:45:52;98417.53;;;2.09;100.00
49843;BME280;55559;48.898;9.184;2023-02-26T11:48:23;98417.47;;;1.61;100.00
49843;BME280;55559;48.898;9.184;2023-02-26T11:50:56;98418.97;;;1.49;100.00
49843;BME280;55559;48.898;9.184;2023-02-26T11:53:25;98426.44;;;1.24;100.00
49843;BME280;55559;48.898;9.184;2023-02-26T11:55:59;98424.41;;;1.62;100.00
49843;BME280;55559;48.898;9.184;2023-02-26T11:58:31;98418.06;;;1.66;100.00
49843;BME280;55559;48.898;9.184;2023-02-26T12:01:01;98431.09;;;1.52;100.00
49843;BME280;55559;48.898;9.184;2023-02-26T12:03:32;98428.50;;;1.17;100.00
49843;BME280;55559;48.898;9.184;2023-02-26T12:06:02;98431.84;;;1.54;100.00
49843;BME280;55559;48.898;9.184;2023-02-26T12:08:31;98430.53;;;1.79;100.00
49843;BME280;55559;48.898;9.184;2023-02-26T12:11:21;98434.84;;;1.80;100.00
49843;BME280;55559;48.898;9.184;2023-02-26T12:14:04;98420.78;;;1.65;100.00
49843;BME280;55559;48.898;9.184;2023-02-26T12:16:42;98429.59;;;1.80;100.00
49843;BME280;55559;48.898;9.184;2023-02-26T12:19:17;98432.13;;;1.65;100.00
49843;BME280;55559;48.898;9.184;2023-02-26T12:22:08;98421.06;;;1.43;100.00
49843;BME280;55559;48.898;9.184;2023-02-26T12:27:40;98427.34;;;1.56;100.00
49843;BME280;55559;48.898;9.184;2023-02-26T12:30:32;98431.53;;;1.43;100.00
49843;BME280;55559;48.898;9.184;2023-02-26T12:33:15;98426.53;;;1.56;100.00
49843;BME280;55559;48.898;9.184;2023-02-26T12:35:56;98419.06;;;1.48;100.00
49843;BME280;55559;48.898;9.184;2023-02-26T12:38:36;98423.50;;;1.30;100.00
49843;BME280;55559;48.898;9.184;2023-02-26T12:41:31;98428.47;;;1.35;100.00
49843;BME280;55559;48.898;9.184;2023-02-26T12:44:13;98430.66;;;1.26;100.00
49843;BME280;55559;48.898;9.184;2023-02-26T12:46:58;98435.16;;;1.07;100.00
49843;BME280;55559;48.898;9.184;2023-02-26T12:49:53;98434.75;;;1.32;100.00
49843;BME280;55559;48.898;9.184;2023-02-26T12:52:53;98445.34;;;1.46;100.00
49843;BME280;55559;48.898;9.184;2023-02-26T12:55:34;98442.09;;;1.59;100.00
49843;BME280;55559;48.898;9.184;2023-02-26T12:58:32;98438.94;;;1.52;100.00
49843;BME280;55559;48.898;9.184;2023-02-26T13:01:21;98444.09;;;1.54;100.00
49843;BME280;55559;48.898;9.184;2023-02-26T13:04:29;98436.38;;;1.84;100.00
49843;BME280;55559;48.898;9.184;2023-02-26T13:07:35;98434.84;;;1.80;100.00
49843;BME280;55559;48.898;9.184;2023-02-26T13:10:08;98442.31;;;1.88;100.00
49843;BME280;55559;48.898;9.184;2023-02-26T13:12:48;98443.13;;;1.72;100.00
49843;BME280;55559;48.898;9.184;2023-02-26T13:15:32;98448.78;;;1.64;100.00
49843;BME280;55559;48.898;9.184;2023-02-26T13:18:10;98445.25;;;1.48;100.00
49843;BME280;55559;48.898;9.184;2023-02-26T13:20:47;98452.38;;;1.11;100.00
49843;BME280;55559;48.898;9.184;2023-02-26T13:23:21;98449.16;;;1.23;100.00
49843;BME280;55559;48.898;9.184;2023-02-26T13:25:53;98452.09;;;1.17;100.00
49843;BME280;55559;48.898;9.184;2023-02-26T13:28:33;98445.22;;;1.32;100.00